Time;durP1;ratioP1;P1;durP2;ratioP2;P2;SDS_P1;SDS_P2;PMS_P1;PMS_P2;Temp;Humidity;BMP_temperature;BMP_pressure;BME280_temperature;BME280_humidity;BME280_pressure;Samples;Min_cycle;Max_cycle;Signal;HPM_P1;HPM_P2
2023/04/23 00:02:11;;;;;;;;;;;13.10;11.80;;;;;;5073115;28;19912;-75
2023/04/23 00:04:37;;;;;;;;;;;13.00;13.00;;;;;;5075170;28;19962;-75
2023/04/23 00:07:13;;;;;;;;;;;13.00;16.70;;;;;;5074983;28;19919;-75
2023/04/23 00:09:39;;;;;;;;;;;13.00;17.30;;;;;;5073719;28;19913;-74
2023/04/23 00:12:11;;;;;;;;;;;13.00;16.20;;;;;;5074402;28;19916;-74
2023/04/23 00:14:36;;;;;;;;;;;13.00;15.60;;;;;;5075414;28;19908;-79
2023/04/23 00:17:05;;;;;;;;;;;13.10;16.60;;;;;;5073930;28;20371;-79
2023/04/23 00:19:30;;;;;;;;;;;13.00;16.00;;;;;;5080704;28;19908;-79
2023/04/23 00:22:05;;;;;;;;;;;13.10;15.40;;;;;;5078896;28;19974;-79
2023/04/23 00:24:41;;;;;;;;;;;13.10;15.40;;;;;;5074834;28;19920;-79
2023/04/23 00:27:11;;;;;;;;;;;13.00;18.60;;;;;;5074488;28;19947;-79
2023/04/23 00:29:42;;;;;;;;;;;13.00;19.40;;;;;;5072414;28;19978;-74
2023/04/23 00:32:11;;;;;;;;;;;13.00;20.80;;;;;;5088777;28;19908;-74
2023/04/23 00:34:41;;;;;;;;;;;13.10;18.70;;;;;;5093598;28;19908;-74
2023/04/23 00:37:06;;;;;;;;;;;13.10;18.20;;;;;;5086720;28;19923;-74
2023/04/23 00:39:41;;;;;;;;;;;13.10;22.20;;;;;;5073634;28;19913;-74
2023/04/23 00:42:11;;;;;;;;;;;13.10;22.40;;;;;;5074505;28;19909;-74
2023/04/23 00:44:40;;;;;;;;;;;13.10;20.60;;;;;;5073469;28;19913;-75
2023/04/23 00:47:07;;;;;;;;;;;13.10;20.00;;;;;;5060499;28;19982;-74
2023/04/23 00:49:33;;;;;;;;;;;13.00;23.70;;;;;;5054408;28;19921;-74
2023/04/23 00:52:05;;;;;;;;;;;13.00;22.60;;;;;;5067722;28;19919;-75
2023/04/23 00:54:31;;;;;;;;;;;13.00;27.40;;;;;;5094487;28;19908;-74
2023/04/23 00:56:56;;;;;;;;;;;13.00;34.60;;;;;;5094134;28;19922;-74
2023/04/23 00:59:24;;;;;;;;;;;13.00;34.60;;;;;;5072956;28;19916;-79
2023/04/23 01:01:53;;;;;;;;;;;12.90;44.30;;;;;;5060507;28;19936;-79
2023/04/23 01:04:23;;;;;;;;;;;12.80;44.40;;;;;;5054108;28;20322;-79
2023/04/23 01:07:06;;;;;;;;;;;12.90;44.40;;;;;;5057492;28;19999;-80
2023/04/23 01:09:41;;;;;;;;;;;12.80;44.30;;;;;;5072809;28;19998;-80
2023/04/23 01:12:07;;;;;;;;;;;12.80;44.40;;;;;;5078307;28;19967;-80
2023/04/23 01:14:33;;;;;;;;;;;12.80;44.30;;;;;;5074001;28;19917;-75
2023/04/23 01:16:59;;;;;;;;;;;12.80;44.30;;;;;;5060167;28;19913;-75
2023/04/23 01:19:25;;;;;;;;;;;12.80;44.30;;;;;;5054266;28;19916;-75
2023/04/23 01:21:52;;;;;;;;;;;12.90;44.60;;;;;;5073726;28;19912;-75
2023/04/23 01:24:17;;;;;;;;;;;12.80;44.40;;;;;;5083276;28;20390;-75
2023/04/23 01:26:43;;;;;;;;;;;12.80;44.30;;;;;;5093991;28;19908;-75
2023/04/23 01:29:17;;;;;;;;;;;12.70;44.30;;;;;;5078009;28;19912;-79
2023/04/23 01:31:53;;;;;;;;;;;12.70;44.30;;;;;;5053917;28;19920;-80
2023/04/23 01:34:19;;;;;;;;;;;12.80;44.30;;;;;;5052468;28;20356;-80
2023/04/23 01:36:46;;;;;;;;;;;12.80;44.30;;;;;;5054725;28;19909;-81
2023/04/23 01:39:12;;;;;;;;;;;12.90;44.50;;;;;;5072800;28;19999;-80
2023/04/23 01:41:38;;;;;;;;;;;12.80;44.30;;;;;;5072974;28;20034;-80
2023/04/23 01:44:04;;;;;;;;;;;12.90;44.70;;;;;;5060934;28;20292;-76
2023/04/23 01:46:30;;;;;;;;;;;12.80;44.40;;;;;;5055474;28;19913;-75
2023/04/23 01:48:55;;;;;;;;;;;12.80;44.40;;;;;;5072739;28;20500;-75
2023/04/23 01:51:22;;;;;;;;;;;12.70;44.30;;;;;;5057851;28;20355;-75
2023/04/23 01:53:48;;;;;;;;;;;12.70;44.30;;;;;;5057657;28;19916;-75
2023/04/23 01:56:15;;;;;;;;;;;12.70;44.30;;;;;;5057636;28;19916;-75
2023/04/23 01:58:40;;;;;;;;;;;12.60;48.00;;;;;;5088612;28;19960;-75
2023/04/23 02:01:06;;;;;;;;;;;12.60;58.60;;;;;;5065305;28;20082;-75
2023/04/23 02:03:50;;;;;;;;;;;12.60;63.20;;;;;;5057581;28;19909;-75
2023/04/23 02:06:16;;;;;;;;;;;12.60;65.20;;;;;;5069794;28;19912;-75
2023/04/23 02:08:42;;;;;;;;;;;12.50;69.70;;;;;;5077045;28;20379;-75
2023/04/23 02:11:11;;;;;;;;;;;12.60;72.40;;;;;;5088975;28;19935;-75
2023/04/23 02:13:36;;;;;;;;;;;12.70;69.40;;;;;;5077155;28;19919;-75
2023/04/23 02:16:02;;;;;;;;;;;12.70;62.90;;;;;;5083146;28;20003;-75
2023/04/23 02:18:28;;;;;;;;;;;12.60;61.60;;;;;;5097555;28;19962;-75
2023/04/23 02:20:59;;;;;;;;;;;12.60;63.50;;;;;;5086950;28;19919;-75
2023/04/23 02:23:29;;;;;;;;;;;12.70;63.40;;;;;;5073278;28;19920;-75
2023/04/23 02:25:59;;;;;;;;;;;12.50;63.30;;;;;;5061159;28;19913;-75
2023/04/23 02:28:30;;;;;;;;;;;12.60;67.50;;;;;;5092347;28;19958;-75
2023/04/23 02:31:17;;;;;;;;;;;12.60;67.90;;;;;;5092108;28;20007;-79
2023/04/23 02:33:53;;;;;;;;;;;12.70;64.60;;;;;;5057585;28;19913;-80
2023/04/23 02:36:23;;;;;;;;;;;12.60;64.30;;;;;;5056704;28;19948;-80
2023/04/23 02:39:19;;;;;;;;;;;12.60;64.40;;;;;;5069913;28;19913;-79
2023/04/23 02:41:53;;;;;;;;;;;12.70;62.60;;;;;;5091819;28;19912;-81
2023/04/23 02:44:23;;;;;;;;;;;12.70;59.90;;;;;;5076525;28;19909;-80
2023/04/23 02:46:53;;;;;;;;;;;12.70;56.30;;;;;;5087654;28;19965;-80
2023/04/23 02:49:23;;;;;;;;;;;12.70;57.40;;;;;;5096677;28;19908;-80
2023/04/23 02:51:53;;;;;;;;;;;12.70;57.10;;;;;;5069943;28;19921;-80
2023/04/23 02:54:19;;;;;;;;;;;12.80;54.80;;;;;;5091992;28;19916;-79
2023/04/23 02:57:05;;;;;;;;;;;12.70;51.80;;;;;;5072971;28;19916;-80
2023/04/23 03:00:07;;;;;;;;;;;12.70;50.70;;;;;;5093638;28;19912;-80
2023/04/23 03:03:05;;;;;;;;;;;12.70;41.00;;;;;;5092463;28;19911;-80
2023/04/23 03:05:59;;;;;;;;;;;12.70;44.60;;;;;;5096011;28;19920;-80
2023/04/23 03:08:29;;;;;;;;;;;12.70;47.00;;;;;;5088868;28;19909;-80
2023/04/23 03:10:59;;;;;;;;;;;12.60;47.00;;;;;;5062777;28;20284;-80
2023/04/23 03:13:41;;;;;;;;;;;12.60;55.80;;;;;;5056224;28;20004;-80
2023/04/23 03:16:11;;;;;;;;;;;12.60;56.00;;;;;;5062267;28;19947;-81
2023/04/23 03:19:05;;;;;;;;;;;12.50;61.30;;;;;;5075788;28;20014;-80
2023/04/23 03:21:47;;;;;;;;;;;12.60;63.60;;;;;;5093566;28;19931;-80
2023/04/23 03:24:23;;;;;;;;;;;12.60;60.90;;;;;;5055696;28;20408;-80
2023/04/23 03:26:48;;;;;;;;;;;12.50;57.90;;;;;;5075413;28;20368;-79
2023/04/23 03:29:29;;;;;;;;;;;12.50;63.80;;;;;;5069761;28;19909;-80
2023/04/23 03:31:55;;;;;;;;;;;12.50;65.40;;;;;;5069997;28;19957;-74
2023/04/23 03:34:35;;;;;;;;;;;12.40;68.30;;;;;;5055597;28;20012;-75
2023/04/23 03:37:00;;;;;;;;;;;12.40;75.50;;;;;;5055989;28;19920;-75
2023/04/23 03:39:35;;;;;;;;;;;12.30;73.60;;;;;;5061249;28;19909;-75
2023/04/23 03:42:00;;;;;;;;;;;12.30;78.10;;;;;;5070918;28;19920;-75
2023/04/23 03:44:26;;;;;;;;;;;12.30;80.80;;;;;;5064284;28;19913;-75
2023/04/23 03:46:52;;;;;;;;;;;12.30;82.20;;;;;;5075541;28;19919;-75
2023/04/23 03:55:23;;;;;;;;;;;12.30;82.00;;;;;;5061293;28;19923;-84
2023/04/23 03:57:53;;;;;;;;;;;12.20;82.50;;;;;;5055443;28;20023;-84
2023/04/23 04:00:35;;;;;;;;;;;12.20;85.80;;;;;;5061650;28;20004;-83
2023/04/23 04:03:35;;;;;;;;;;;12.30;86.20;;;;;;5075339;28;19919;-83
2023/04/23 04:09:03;;;;;;;;;;;12.20;80.50;;;;;;5095243;28;19915;-83
2023/04/23 04:11:35;;;;;;;;;;;12.30;80.20;;;;;;5078024;28;19913;-83
2023/04/23 04:14:05;;;;;;;;;;;12.30;76.80;;;;;;5075289;28;19912;-83
2023/04/23 04:19:33;;;;;;;;;;;12.20;75.60;;;;;;5081258;28;19924;-95
2023/04/23 04:22:01;;;;;;;;;;;12.30;75.80;;;;;;5075430;28;19908;-94
2023/04/23 04:27:33;;;;;;;;;;;12.50;68.30;;;;;;5075433;28;19930;-94
2023/04/23 04:33:02;;;;;;;;;;;12.40;60.30;;;;;;5075636;28;19974;-94
2023/04/23 04:38:31;;;;;;;;;;;12.40;60.30;;;;;;5075101;28;19919;-94
2023/04/23 04:43:59;;;;;;;;;;;12.30;57.00;;;;;;5095360;28;19915;-94
2023/04/23 04:46:27;;;;;;;;;;;12.30;65.50;;;;;;5093955;28;19908;-84
2023/04/23 04:49:18;;;;;;;;;;;12.40;64.30;;;;;;5081854;28;19916;-83
2023/04/23 04:51:53;;;;;;;;;;;12.40;62.00;;;;;;5070311;28;20153;-83
2023/04/23 04:54:20;;;;;;;;;;;12.40;61.60;;;;;;5054999;28;19909;-83
2023/04/23 04:59:54;;;;;;;;;;;12.30;61.90;;;;;;5063724;28;19939;-83
2023/04/23 05:08:25;;;;;;;;;;;12.30;70.00;;;;;;5054702;28;20039;-95
2023/04/23 05:13:55;;;;;;;;;;;12.30;73.10;;;;;;5094148;28;19965;-95
2023/04/23 05:16:35;;;;;;;;;;;12.30;70.70;;;;;;5078583;28;19920;-95
2023/04/23 05:25:07;;;;;;;;;;;12.70;60.20;;;;;;5078779;28;19931;-96
2023/04/23 05:30:36;;;;;;;;;;;12.90;44.90;;;;;;5077481;28;19918;-90
2023/04/23 05:39:08;;;;;;;;;;;13.20;44.60;;;;;;5098753;28;19958;-94
2023/04/23 05:45:11;;;;;;;;;;;13.20;35.10;;;;;;5098502;28;19914;-94
2023/04/23 05:50:41;;;;;;;;;;;13.20;29.40;;;;;;5097136;28;19969;-85
2023/04/23 05:53:11;;;;;;;;;;;13.20;29.30;;;;;;5080553;28;19909;-87
2023/04/23 05:55:37;;;;;;;;;;;13.20;44.10;;;;;;5076618;28;20334;-86
2023/04/23 05:58:03;;;;;;;;;;;13.20;44.60;;;;;;5076860;28;19923;-87
2023/04/23 06:00:29;;;;;;;;;;;13.20;44.70;;;;;;5069865;28;19912;-87
2023/04/23 06:03:11;;;;;;;;;;;13.30;44.70;;;;;;5064203;28;19919;-87
2023/04/23 06:06:11;;;;;;;;;;;13.30;44.80;;;;;;5057847;28;19909;-87
2023/04/23 06:09:11;;;;;;;;;;;13.30;33.70;;;;;;5060139;28;20379;-87
2023/04/23 06:11:41;;;;;;;;;;;13.30;33.90;;;;;;5087083;28;19912;-86
2023/04/23 06:14:11;;;;;;;;;;;13.40;25.10;;;;;;5073378;28;20360;-87
2023/04/23 06:16:41;;;;;;;;;;;13.40;20.50;;;;;;5083535;28;19912;-88
2023/04/23 06:19:29;;;;;;;;;;;13.50;17.00;;;;;;5068491;28;19917;-92
2023/04/23 06:22:05;;;;;;;;;;;13.70;14.90;;;;;;5092589;28;19919;-92
2023/04/23 06:27:34;;;;;;;;;;;13.70;8.50;;;;;;5064834;28;19966;-91
2023/04/23 06:36:17;;;;;;;;;;;13.50;3.00;;;;;;5061693;28;19920;-93
2023/04/23 06:39:11;;;;;;;;;;;13.60;2.00;;;;;;5082875;28;19924;-92
2023/04/23 06:41:41;;;;;;;;;;;13.80;1.00;;;;;;5076183;28;20015;-93
2023/04/23 06:44:07;;;;;;;;;;;13.90;1.00;;;;;;5075812;28;19988;-94
2023/04/23 06:49:41;;;;;;;;;;;14.30;1.00;;;;;;5068904;28;19975;-89
2023/04/23 06:52:11;;;;;;;;;;;14.20;1.00;;;;;;5056035;28;19909;-88
2023/04/23 06:54:41;;;;;;;;;;;14.10;1.00;;;;;;5056847;28;19912;-88
2023/04/23 06:57:11;;;;;;;;;;;14.10;1.00;;;;;;5055553;28;19923;-89
2023/04/23 07:00:11;;;;;;;;;;;14.00;1.00;;;;;;5055822;28;19967;-88
2023/04/23 07:03:11;;;;;;;;;;;14.00;1.00;;;;;;5078299;28;20016;-88
2023/04/23 07:05:41;;;;;;;;;;;13.90;1.00;;;;;;5078272;28;19960;-88
2023/04/23 07:08:12;;;;;;;;;;;13.80;1.00;;;;;;5087944;28;19919;-88
2023/04/23 07:13:41;;;;;;;;;;;13.80;1.00;;;;;;5096418;28;19950;-88
2023/04/23 07:22:12;;;;;;;;;;;14.10;1.00;;;;;;5076709;28;20001;-87
2023/04/23 07:27:41;;;;;;;;;;;14.30;1.00;;;;;;5056067;28;20900;-88
2023/04/23 07:30:11;;;;;;;;;;;14.30;1.00;;;;;;5057712;28;19909;-88
2023/04/23 07:32:42;;;;;;;;;;;14.40;1.00;;;;;;5074592;28;19991;-88
2023/04/23 07:38:10;;;;;;;;;;;14.90;1.00;;;;;;5072733;28;19922;-88
2023/04/23 07:41:11;;;;;;;;;;;14.90;1.00;;;;;;5070531;28;19916;-87
2023/04/23 07:46:40;;;;;;;;;;;15.00;1.00;;;;;;5091521;28;19919;-88
2023/04/23 07:52:09;;;;;;;;;;;14.80;1.00;;;;;;5096215;28;19915;-95
2023/04/23 07:57:37;;;;;;;;;;;14.80;1.00;;;;;;5095716;28;19923;-95
2023/04/23 08:03:06;;;;;;;;;;;14.80;1.00;;;;;;5096038;28;19931;-90
2023/04/23 08:05:37;;;;;;;;;;;14.70;1.00;;;;;;5083544;28;19913;-82
2023/04/23 08:08:29;;;;;;;;;;;14.70;1.00;;;;;;5060543;28;20382;-83
2023/04/23 08:11:05;;;;;;;;;;;14.70;1.00;;;;;;5073940;28;19915;-87
2023/04/23 08:13:47;;;;;;;;;;;14.70;1.00;;;;;;5075651;28;19909;-87
2023/04/23 08:16:36;;;;;;;;;;;14.70;1.00;;;;;;5074017;28;19912;-86
2023/04/23 08:22:23;;;;;;;;;;;14.60;1.00;;;;;;5075302;28;20000;-90
2023/04/23 08:37:01;;;;;;;;;;;14.70;1.00;;;;;;5065825;28;19919;-91
2023/04/23 08:39:35;;;;;;;;;;;14.80;1.00;;;;;;5070665;28;19908;-92
2023/04/23 08:42:04;;;;;;;;;;;14.70;1.00;;;;;;5054569;28;20605;-80
2023/04/23 08:44:36;;;;;;;;;;;14.90;1.00;;;;;;5054575;28;19935;-75
2023/04/23 08:47:06;;;;;;;;;;;15.20;1.00;;;;;;5071794;28;19916;-82
2023/04/23 08:49:49;;;;;;;;;;;15.40;1.00;;;;;;5073266;28;19916;-82
2023/04/23 08:52:16;;;;;;;;;;;15.60;1.00;;;;;;5073556;28;20423;-82
2023/04/23 08:54:48;;;;;;;;;;;15.80;1.00;;;;;;5072943;28;19989;-82
2023/04/23 08:57:18;;;;;;;;;;;15.90;1.00;;;;;;5058778;28;19927;-82
2023/04/23 09:00:06;;;;;;;;;;;15.90;1.00;;;;;;5052775;28;19917;-82
2023/04/23 09:02:47;;;;;;;;;;;15.90;1.00;;;;;;5069514;28;19931;-82
2023/04/23 09:05:17;;;;;;;;;;;16.00;1.00;;;;;;5057512;28;20368;-82
2023/04/23 09:07:47;;;;;;;;;;;16.20;1.00;;;;;;5059803;28;19919;-82
2023/04/23 09:10:23;;;;;;;;;;;16.50;1.00;;;;;;5072766;28;19909;-82
2023/04/23 09:12:59;;;;;;;;;;;16.90;1.00;;;;;;5072787;28;19914;-82
2023/04/23 09:15:53;;;;;;;;;;;17.10;1.00;;;;;;5072994;28;19920;-82
2023/04/23 09:21:23;;;;;;;;;;;17.50;1.00;;;;;;5071072;28;19935;-85
2023/04/23 09:27:25;;;;;;;;;;;18.00;1.00;;;;;;5084203;28;20394;-84
2023/04/23 09:35:56;;;;;;;;;;;19.10;1.00;;;;;;5076183;28;19920;-74
2023/04/23 09:38:22;;;;;;;;;;;19.60;1.00;;;;;;5073926;28;19917;-74
2023/04/23 09:40:49;;;;;;;;;;;19.80;1.00;;;;;;5073614;28;19908;-74
2023/04/23 09:43:14;;;;;;;;;;;19.80;1.00;;;;;;5073976;28;20236;-74
2023/04/23 09:45:47;;;;;;;;;;;19.80;1.00;;;;;;5072491;28;19959;-74
2023/04/23 09:48:13;;;;;;;;;;;19.80;1.00;;;;;;5073943;28;19909;-75
2023/04/23 09:50:38;;;;;;;;;;;20.00;1.00;;;;;;5074048;28;19915;-74
2023/04/23 09:53:05;;;;;;;;;;;20.00;1.00;;;;;;5073546;28;19908;-74
2023/04/23 09:55:34;;;;;;;;;;;19.90;1.00;;;;;;5073560;28;20010;-75
2023/04/23 09:58:00;;;;;;;;;;;19.30;1.00;;;;;;5073629;28;19924;-75
2023/04/23 10:00:31;;;;;;;;;;;19.10;1.00;;;;;;5073770;28;19908;-74
2023/04/23 10:02:58;;;;;;;;;;;18.90;1.00;;;;;;5074739;28;19909;-74
2023/04/23 10:05:47;;;;;;;;;;;18.90;1.00;;;;;;5075859;28;19916;-80
2023/04/23 10:08:18;;;;;;;;;;;19.00;1.00;;;;;;5077449;28;19908;-80
2023/04/23 10:10:47;;;;;;;;;;;19.10;1.00;;;;;;5077439;28;19938;-80
2023/04/23 10:16:29;;;;;;;;;;;19.50;1.00;;;;;;5076747;28;20447;-80
2023/04/23 10:19:00;;;;;;;;;;;19.80;1.00;;;;;;5075549;28;19918;-80
2023/04/23 10:21:30;;;;;;;;;;;19.80;1.00;;;;;;5066011;28;19919;-80
2023/04/23 10:24:01;;;;;;;;;;;19.90;1.00;;;;;;5056708;28;19935;-81
2023/04/23 10:26:27;;;;;;;;;;;20.10;1.00;;;;;;5057073;28;19908;-80
2023/04/23 10:29:00;;;;;;;;;;;20.30;1.00;;;;;;5056819;28;19909;-80
2023/04/23 10:31:26;;;;;;;;;;;20.20;1.00;;;;;;5056678;28;20280;-80
2023/04/23 10:33:54;;;;;;;;;;;20.30;1.00;;;;;;5056620;28;19909;-80
2023/04/23 10:36:24;;;;;;;;;;;20.20;1.00;;;;;;5068190;28;19920;-74
2023/04/23 10:38:55;;;;;;;;;;;20.10;1.00;;;;;;5076263;28;20027;-74
2023/04/23 10:41:23;;;;;;;;;;;19.90;1.00;;;;;;5076846;28;19915;-74
2023/04/23 10:43:53;;;;;;;;;;;19.90;1.00;;;;;;5076671;28;19916;-74
2023/04/23 10:46:29;;;;;;;;;;;20.00;1.00;;;;;;5076825;28;19948;-74
2023/04/23 10:49:09;;;;;;;;;;;19.90;1.00;;;;;;5076597;28;20360;-74
2023/04/23 10:51:35;;;;;;;;;;;20.10;1.00;;;;;;5076820;28;19985;-74
2023/04/23 10:54:04;;;;;;;;;;;20.00;1.00;;;;;;5076339;28;19908;-74
2023/04/23 10:56:30;;;;;;;;;;;20.00;1.00;;;;;;5076284;28;19916;-75
2023/04/23 10:59:05;;;;;;;;;;;20.30;1.00;;;;;;5076438;28;19916;-74
2023/04/23 11:01:31;;;;;;;;;;;20.20;1.00;;;;;;5076485;28;20451;-74
2023/04/23 11:03:56;;;;;;;;;;;19.70;1.00;;;;;;5076155;28;19908;-74
2023/04/23 11:09:29;;;;;;;;;;;19.70;1.00;;;;;;5075791;28;19932;-80
2023/04/23 11:14:58;;;;;;;;;;;20.40;1.00;;;;;;5074455;28;19954;-79
2023/04/23 11:17:35;;;;;;;;;;;20.70;1.00;;;;;;5079349;28;19924;-87
2023/04/23 11:20:35;;;;;;;;;;;21.00;1.00;;;;;;5057967;28;19913;-86
2023/04/23 11:23:23;;;;;;;;;;;21.20;1.00;;;;;;5064926;28;19920;-84
2023/04/23 11:31:55;;;;;;;;;;;20.40;1.00;;;;;;5075926;28;20428;-84
2023/04/23 11:37:24;;;;;;;;;;;20.40;1.00;;;;;;5056099;28;19927;-86
2023/04/23 11:42:56;;;;;;;;;;;20.10;1.00;;;;;;5056198;28;19916;-91
2023/04/23 11:57:39;;;;;;;;;;;20.70;1.00;;;;;;5085272;28;19927;-88
2023/04/23 12:06:35;;;;;;;;;;;21.70;1.00;;;;;;5069543;28;19996;-88
2023/04/23 12:09:23;;;;;;;;;;;21.60;1.00;;;;;;5063125;28;19912;-85
2023/04/23 12:21:05;;;;;;;;;;;21.70;1.00;;;;;;5055328;28;19942;-84
2023/04/23 12:23:59;;;;;;;;;;;21.40;1.00;;;;;;5058199;28;19913;-84
2023/04/23 12:29:29;;;;;;;;;;;21.20;1.00;;;;;;5060316;28;19931;-84
2023/04/23 12:32:31;;;;;;;;;;;21.10;1.00;;;;;;5059100;28;19921;-83
2023/04/23 12:35:17;;;;;;;;;;;20.90;1.00;;;;;;5070904;28;19935;-83
2023/04/23 12:38:17;;;;;;;;;;;21.30;1.00;;;;;;5070046;28;19917;-84
2023/04/23 12:40:54;;;;;;;;;;;21.60;1.00;;;;;;5070199;28;20022;-84
2023/04/23 12:43:20;;;;;;;;;;;21.90;1.00;;;;;;5059878;28;19916;-84
2023/04/23 12:45:53;;;;;;;;;;;21.70;1.00;;;;;;5073825;28;19961;-84
2023/04/23 12:48:29;;;;;;;;;;;21.20;1.00;;;;;;5066037;28;19913;-84
2023/04/23 12:50:59;;;;;;;;;;;21.20;1.00;;;;;;5074856;28;19909;-85
2023/04/23 12:56:36;;;;;;;;;;;21.60;1.00;;;;;;5063673;28;20331;-87
2023/04/23 13:02:11;;;;;;;;;;;21.80;1.00;;;;;;5068125;28;19920;-87
2023/04/23 13:04:37;;;;;;;;;;;21.70;1.00;;;;;;5071938;28;19912;-87
2023/04/23 13:07:23;;;;;;;;;;;22.00;1.00;;;;;;5080461;28;19919;-88
2023/04/23 13:09:53;;;;;;;;;;;22.20;1.00;;;;;;5079833;28;19927;-90
2023/04/23 13:12:35;;;;;;;;;;;22.30;1.00;;;;;;5070168;28;19913;-89
2023/04/23 13:18:05;;;;;;;;;;;22.20;1.00;;;;;;5059197;28;20376;-90
2023/04/23 13:20:47;;;;;;;;;;;21.90;1.00;;;;;;5081687;28;19912;-90
2023/04/23 13:29:29;;;;;;;;;;;21.80;1.00;;;;;;5065719;28;20334;-91
2023/04/23 13:38:11;;;;;;;;;;;21.30;1.00;;;;;;5062875;28;20598;-86
2023/04/23 13:40:38;;;;;;;;;;;21.40;1.00;;;;;;5072876;28;19960;-86
2023/04/23 13:46:06;;;;;;;;;;;21.70;1.00;;;;;;5073227;28;19973;-86
2023/04/23 13:51:41;;;;;;;;;;;22.00;1.00;;;;;;5085175;28;19920;-86
2023/04/23 13:57:10;;;;;;;;;;;21.50;1.00;;;;;;5066309;28;19923;-85
2023/04/23 13:59:57;;;;;;;;;;;21.20;1.00;;;;;;5083854;28;20456;-86
2023/04/23 14:05:25;;;;;;;;;;;21.60;1.00;;;;;;5061132;28;20275;-85
2023/04/23 14:07:59;;;;;;;;;;;21.90;1.00;;;;;;5071536;28;19912;-86
2023/04/23 14:10:53;;;;;;;;;;;22.40;1.00;;;;;;5077380;28;19908;-86
2023/04/23 14:13:23;;;;;;;;;;;22.50;1.00;;;;;;5073421;28;19913;-87
2023/04/23 14:16:05;;;;;;;;;;;22.90;1.00;;;;;;5077493;28;19952;-87
2023/04/23 14:22:05;;;;;;;;;;;22.60;1.00;;;;;;5086906;28;19923;-87
2023/04/23 14:30:59;;;;;;;;;;;22.60;1.00;;;;;;5076916;28;19962;-86
2023/04/23 14:33:47;;;;;;;;;;;22.50;1.00;;;;;;5076204;28;19919;-86
2023/04/23 14:42:19;;;;;;;;;;;22.90;1.00;;;;;;5077061;28;19962;-85
2023/04/23 14:44:47;;;;;;;;;;;23.40;1.00;;;;;;5085768;28;19908;-85
2023/04/23 14:50:47;;;;;;;;;;;23.70;1.00;;;;;;5075326;28;19971;-85
2023/04/23 14:56:16;;;;;;;;;;;23.90;1.00;;;;;;5077783;28;20390;-86
2023/04/23 14:58:53;;;;;;;;;;;23.70;1.00;;;;;;5068499;28;19925;-85
2023/04/23 15:04:22;;;;;;;;;;;23.90;1.00;;;;;;5056824;28;19916;-85
2023/04/23 15:09:50;;;;;;;;;;;23.30;1.00;;;;;;5076803;28;20279;-87
2023/04/23 15:18:23;;;;;;;;;;;23.00;1.00;;;;;;5076700;28;19939;-88
2023/04/23 15:23:52;;;;;;;;;;;22.60;1.00;;;;;;5076717;28;20279;-84
2023/04/23 15:26:48;;;;;;;;;;;22.10;1.00;;;;;;5067669;28;19909;-82
2023/04/23 15:32:16;;;;;;;;;;;21.50;1.00;;;;;;5075637;28;19915;-83
2023/04/23 15:53:00;;;;;;;;;;;21.00;1.00;;;;;;5076028;28;20279;-88
2023/04/23 15:55:29;;;;;;;;;;;21.00;1.00;;;;;;5074548;28;19908;-87
2023/04/23 15:57:56;;;;;;;;;;;21.00;1.00;;;;;;5055928;28;19920;-87
2023/04/23 16:03:25;;;;;;;;;;;21.10;1.00;;;;;;5055702;28;19947;-88
2023/04/23 16:08:53;;;;;;;;;;;21.00;1.00;;;;;;5075686;28;19962;-86
2023/04/23 16:14:21;;;;;;;;;;;20.20;1.00;;;;;;5095784;28;20003;-87
2023/04/23 16:22:53;;;;;;;;;;;19.60;1.00;;;;;;5075511;28;20295;-87
2023/04/23 16:25:29;;;;;;;;;;;19.50;1.00;;;;;;5073407;28;19909;-87
2023/04/23 16:37:04;;;;;;;;;;;18.70;1.00;;;;;;5071773;28;19920;-89
2023/04/23 16:42:59;;;;;;;;;;;16.80;1.00;;;;;;5054376;28;20719;-88
2023/04/23 16:45:43;;;;;;;;;;;16.30;1.00;;;;;;5072687;28;19923;-87
2023/04/23 16:54:14;;;;;;;;;;;16.00;1.00;;;;;;5075266;28;19919;-88
2023/04/23 16:56:41;;;;;;;;;;;15.70;1.00;;;;;;5072767;28;19924;-88
2023/04/23 17:02:36;;;;;;;;;;;15.50;1.00;;;;;;5034387;28;20380;-84
2023/04/23 17:14:11;;;;;;;;;;;15.50;1.00;;;;;;5054075;28;20383;-89
2023/04/23 17:31:46;;;;;;;;;;;15.40;1.00;;;;;;5034134;28;19920;-85
2023/04/23 17:34:17;;;;;;;;;;;15.30;1.00;;;;;;5038042;28;19908;-85
2023/04/23 17:36:47;;;;;;;;;;;15.30;1.00;;;;;;5052519;28;19967;-86
2023/04/23 17:42:16;;;;;;;;;;;15.10;1.00;;;;;;5034486;28;20367;-89
2023/04/23 17:47:44;;;;;;;;;;;15.00;1.00;;;;;;5041158;28;19919;-93
2023/04/23 17:53:13;;;;;;;;;;;15.00;1.00;;;;;;5059762;28;20272;-92
2023/04/23 17:55:38;;;;;;;;;;;15.00;1.00;;;;;;5060594;28;19912;-92
2023/04/23 18:04:10;;;;;;;;;;;15.00;1.00;;;;;;5049126;28;19967;-90
2023/04/23 18:19:11;;;;;;;;;;;14.50;1.00;;;;;;5053823;28;20422;-87
2023/04/23 18:24:53;;;;;;;;;;;14.40;1.00;;;;;;5036190;28;20308;-87
2023/04/23 18:27:24;;;;;;;;;;;14.40;1.00;;;;;;5042046;28;19947;-85
2023/04/23 18:35:54;;;;;;;;;;;14.00;1.00;;;;;;5056971;28;19919;-85
2023/04/23 18:38:54;;;;;;;;;;;13.90;1.00;;;;;;5064901;28;19972;-85
2023/04/23 18:47:24;;;;;;;;;;;13.50;1.00;;;;;;5039960;28;19927;-85
2023/04/23 18:50:01;;;;;;;;;;;13.40;1.00;;;;;;5055971;28;19963;-85
2023/04/23 18:52:47;;;;;;;;;;;13.40;1.00;;;;;;5053919;28;19920;-84
2023/04/23 18:55:16;;;;;;;;;;;13.30;1.00;;;;;;5056266;28;19940;-85
2023/04/23 18:57:42;;;;;;;;;;;13.30;1.00;;;;;;5062035;28;19920;-85
2023/04/23 19:03:11;;;;;;;;;;;13.20;1.00;;;;;;5056770;28;19915;-85
2023/04/23 19:11:43;;;;;;;;;;;13.10;1.00;;;;;;5036936;28;20277;-85
2023/04/23 19:14:11;;;;;;;;;;;13.10;1.00;;;;;;5066007;28;19959;-86
2023/04/23 19:23:07;;;;;;;;;;;13.10;1.00;;;;;;5057058;28;20007;-86
2023/04/23 19:26:05;;;;;;;;;;;13.10;1.00;;;;;;5035988;28;19920;-85
2023/04/23 19:34:37;;;;;;;;;;;12.90;1.00;;;;;;5036365;28;20283;-85
2023/04/23 19:37:23;;;;;;;;;;;12.80;1.00;;;;;;5034558;28;19909;-86
2023/04/23 19:39:53;;;;;;;;;;;12.70;1.00;;;;;;5053197;28;19971;-85
2023/04/23 19:42:23;;;;;;;;;;;12.70;1.00;;;;;;5056528;28;19909;-86
2023/04/23 19:44:49;;;;;;;;;;;12.60;1.00;;;;;;5058363;28;19908;-85
2023/04/23 19:47:41;;;;;;;;;;;12.50;1.00;;;;;;5034968;28;20467;-85
2023/04/23 19:50:41;;;;;;;;;;;12.50;1.00;;;;;;5055018;28;19916;-85
2023/04/23 19:56:12;;;;;;;;;;;12.40;1.00;;;;;;5056040;28;19923;-85
2023/04/23 19:58:49;;;;;;;;;;;12.40;1.00;;;;;;5069720;28;19920;-86
2023/04/23 20:04:18;;;;;;;;;;;12.40;1.00;;;;;;5060800;28;20271;-85
2023/04/23 20:07:00;;;;;;;;;;;12.40;1.00;;;;;;5064708;28;19909;-86
2023/04/23 20:12:29;;;;;;;;;;;12.40;1.00;;;;;;5055901;28;19916;-86
2023/04/23 20:17:58;;;;;;;;;;;12.40;1.00;;;;;;5074109;28;20009;-86
2023/04/23 20:20:24;;;;;;;;;;;12.50;1.00;;;;;;5073878;28;20345;-75
2023/04/23 20:22:53;;;;;;;;;;;12.50;1.00;;;;;;5041362;28;19913;-74
2023/04/23 20:25:23;;;;;;;;;;;12.50;1.00;;;;;;5049120;28;19913;-75
2023/04/23 20:28:11;;;;;;;;;;;12.50;1.00;;;;;;5039000;28;19994;-81
2023/04/23 20:30:41;;;;;;;;;;;12.50;1.00;;;;;;5049438;28;19913;-81
2023/04/23 20:33:18;;;;;;;;;;;12.50;1.00;;;;;;5054916;28;19909;-82
2023/04/23 20:35:43;;;;;;;;;;;12.50;1.00;;;;;;5054489;28;19958;-81
2023/04/23 20:38:20;;;;;;;;;;;12.60;1.00;;;;;;5061752;28;20015;-81
2023/04/23 20:40:55;;;;;;;;;;;12.60;1.00;;;;;;5043939;28;19913;-82
2023/04/23 20:43:37;;;;;;;;;;;12.60;1.00;;;;;;5056822;28;20000;-81
2023/04/23 20:46:11;;;;;;;;;;;12.60;1.00;;;;;;5054145;28;19974;-81
2023/04/23 20:48:54;;;;;;;;;;;12.60;1.00;;;;;;5060315;28;19913;-81
2023/04/23 20:54:22;;;;;;;;;;;12.60;1.00;;;;;;5073302;28;20433;-81
2023/04/23 20:57:11;;;;;;;;;;;12.60;1.00;;;;;;5074297;28;19968;-81
2023/04/23 21:00:10;;;;;;;;;;;12.60;1.00;;;;;;5039155;28;20086;-81
2023/04/23 21:05:43;;;;;;;;;;;12.40;1.00;;;;;;5073617;28;19934;-81
2023/04/23 21:11:16;;;;;;;;;;;12.40;1.00;;;;;;5073954;28;20007;-81
2023/04/23 21:13:54;;;;;;;;;;;12.30;1.00;;;;;;5067520;28;19916;-81
2023/04/23 21:16:23;;;;;;;;;;;12.40;1.00;;;;;;5073580;28;19919;-81
2023/04/23 21:19:17;;;;;;;;;;;12.40;1.00;;;;;;5066202;28;19917;-81
2023/04/23 21:21:54;;;;;;;;;;;12.40;1.00;;;;;;5051793;28;19913;-82
2023/04/23 21:24:24;;;;;;;;;;;12.30;1.00;;;;;;5041070;28;20391;-81
2023/04/23 21:26:49;;;;;;;;;;;12.30;1.00;;;;;;5034317;28;19909;-75
2023/04/23 21:29:15;;;;;;;;;;;12.20;1.00;;;;;;5045636;28;19923;-75
2023/04/23 21:31:49;;;;;;;;;;;12.20;1.00;;;;;;5053472;28;20008;-75
2023/04/23 21:34:24;;;;;;;;;;;12.20;1.00;;;;;;5054137;28;19920;-75
2023/04/23 21:36:54;;;;;;;;;;;12.20;1.00;;;;;;5054131;28;19916;-74
2023/04/23 21:39:19;;;;;;;;;;;12.20;1.00;;;;;;5056699;28;19916;-75
2023/04/23 21:42:00;;;;;;;;;;;12.20;1.00;;;;;;5067165;28;19940;-81
2023/04/23 21:47:28;;;;;;;;;;;12.20;1.00;;;;;;5047133;28;19952;-81
2023/04/23 21:49:54;;;;;;;;;;;12.20;1.00;;;;;;5049572;28;19913;-81
2023/04/23 21:52:36;;;;;;;;;;;12.30;1.00;;;;;;5052715;28;19973;-81
2023/04/23 21:55:16;;;;;;;;;;;12.30;1.00;;;;;;5048198;28;20383;-82
2023/04/23 21:57:54;;;;;;;;;;;12.30;1.00;;;;;;5071061;28;19940;-75
2023/04/23 22:00:23;;;;;;;;;;;12.40;1.00;;;;;;5076821;28;20316;-75